Main page
METAR-TAF:

METAR-TAF

Airports :

Fritzlar Air Base

Fritzlar, Germany

latitude: 51-07N, longitude: 009-17E, elevation: 172 m

Current weather observation

The report was made 51 minutes ago, at 14:20 UTC
Wind 6 kt from the West
Temperature 20°C
Humidity 37%
Pressure 1018 hPa
Visibility 10 km or more
Few clouds at a height of 6000 ft
Broken clouds at a height of 8000 ft

METAR: ETHF 071420Z 27006KT 9999 FEW060 BKN080 20/05 Q1018 BLU FCST CNL

Time: 17:11 (15:11 UTC)

Forecast

The report was made 2 hours and 5 minutes ago, at 13:06 UTC
Forecast valid from 07 at 14 UTC to 07 at 23 UTC
Wind 8 kt from the West
Visibility 10 km or more
Scattered clouds at a height of 5000 ft
Broken clouds at a height of 7000 ft

TAF: ETHF 071306Z 0714/0723 27008KT 9999 NSW SCT050 BKN070

Weather observations and forecasts of more than 4000 airports (METAR and TAF reports).

The available stations are represented by yellow and red dots on the map.

Hover mouse over dot to see the name of the station.

Then click to see weather observations and forecasts.

To change the map : click on the green buttons with a black cross to zoom in, on the green button with a dash to zoom out, or on the green arrows for adjacent maps.


METAR-TAF: